createdAt,value
2019-01-04T00:01:22.226Z,26.93
2019-01-04T00:04:23.926Z,25.73
2019-01-04T00:07:25.317Z,29.73
2019-01-04T00:10:26.828Z,29.30
2019-01-04T00:13:28.216Z,23.63
2019-01-04T00:16:29.840Z,32.47
2019-01-04T00:19:31.426Z,28.50
2019-01-04T00:22:33.053Z,27.73
2019-01-04T00:25:34.437Z,31.47
2019-01-04T00:28:35.967Z,35.53
2019-01-04T00:31:38.448Z,26.50
2019-01-04T00:34:40.207Z,25.57
2019-01-04T00:37:41.687Z,24.83
2019-01-04T00:40:43.210Z,28.80
2019-01-04T00:43:44.594Z,20.83
2019-01-04T00:46:46.114Z,31.33
2019-01-04T00:49:47.498Z,31.20
2019-01-04T00:52:49.124Z,25.23
2019-01-04T00:56:08.097Z,25.20
2019-01-04T00:59:41.796Z,29.70
2019-01-04T01:02:54.313Z,24.63
2019-01-04T01:06:36.626Z,23.97
2019-01-04T01:10:15.689Z,24.70
2019-01-04T01:13:37.486Z,21.93
2019-01-04T01:16:56.184Z,30.97
2019-01-04T01:20:27.704Z,16.83
2019-01-04T01:24:14.544Z,24.77
2019-01-04T01:27:54.887Z,21.40
2019-01-04T01:31:23.434Z,20.03
2019-01-04T01:34:48.377Z,26.07
2019-01-04T01:37:55.888Z,18.23
2019-01-04T01:41:38.593Z,18.63
2019-01-04T01:45:23.992Z,22.03
2019-01-04T01:48:29.867Z,19.97
2019-01-04T01:51:39.777Z,22.33
2019-01-04T01:54:41.341Z,20.27
2019-01-04T01:57:42.736Z,24.87
2019-01-04T02:00:45.376Z,21.50
2019-01-04T02:03:46.760Z,26.47
2019-01-04T02:06:48.287Z,28.90
2019-01-04T02:09:50.008Z,21.90
2019-01-04T02:12:51.600Z,23.97
2019-01-04T02:15:52.993Z,20.27
2019-01-04T02:18:54.508Z,24.27
2019-01-04T02:21:55.897Z,29.23
2019-01-04T02:24:57.563Z,22.63
2019-01-04T02:27:59.003Z,20.67
2019-01-04T02:31:00.522Z,20.70
2019-01-04T02:34:01.941Z,22.10
2019-01-04T02:37:03.430Z,19.77
2019-01-04T02:40:05.458Z,22.23
2019-01-04T02:43:07.022Z,21.13
2019-01-04T02:46:08.398Z,26.03
2019-01-04T02:49:09.960Z,19.03
2019-01-04T02:52:11.352Z,17.60
2019-01-04T02:55:12.970Z,20.03
2019-01-04T02:58:14.364Z,30.20
2019-01-04T03:01:16.081Z,26.57
2019-01-04T03:04:17.464Z,21.17
2019-01-04T03:07:18.991Z,27.77
2019-01-04T03:10:20.554Z,24.33
2019-01-04T03:13:22.100Z,22.43
2019-01-04T03:16:23.768Z,26.90
2019-01-04T03:19:25.314Z,25.63
2019-01-04T03:22:26.705Z,22.97
2019-01-04T03:25:28.223Z,26.30
2019-01-04T03:28:29.605Z,22.00
2019-01-04T03:31:31.127Z,18.40
2019-01-04T03:34:32.508Z,26.67
2019-01-04T03:37:34.033Z,21.60
2019-01-04T03:40:35.550Z,21.93
2019-01-04T03:43:37.049Z,28.80
2019-01-04T03:46:38.442Z,27.20
2019-01-04T03:49:39.952Z,24.30
2019-01-04T03:52:41.337Z,24.47
2019-01-04T03:55:42.857Z,23.70
2019-01-04T03:58:44.253Z,23.27
2019-01-04T04:01:46.074Z,32.50
2019-01-04T04:04:47.458Z,30.90
2019-01-04T04:07:48.979Z,23.10
2019-01-04T04:10:50.594Z,21.50
2019-01-04T04:13:52.095Z,21.50
2019-01-04T04:16:53.480Z,24.03
2019-01-04T04:19:54.998Z,27.57
2019-01-04T04:22:56.393Z,23.30
2019-01-04T04:25:57.903Z,19.27
2019-01-04T04:28:59.397Z,29.40
2019-01-04T04:32:00.909Z,30.03
2019-01-04T04:35:04.000Z,26.40
2019-01-04T04:38:05.564Z,27.20
2019-01-04T04:41:07.178Z,23.93
2019-01-04T04:44:08.674Z,23.93
2019-01-04T04:47:10.062Z,21.07
2019-01-04T04:50:11.786Z,22.10
2019-01-04T04:53:13.176Z,26.70
2019-01-04T04:56:14.690Z,21.20
2019-01-04T04:59:16.097Z,24.47
2019-01-04T05:02:17.802Z,33.07
2019-01-04T05:05:19.191Z,29.47
2019-01-04T05:08:20.810Z,26.27
2019-01-04T05:11:22.324Z,25.93
2019-01-04T05:14:23.816Z,26.57
2019-01-04T05:17:25.208Z,22.83
2019-01-04T05:20:26.726Z,23.23
2019-01-04T05:23:28.116Z,25.20
2019-01-04T05:26:29.630Z,32.50
2019-01-04T05:29:31.021Z,25.43
2019-01-04T05:32:32.495Z,28.40
2019-01-04T05:35:33.883Z,25.13
2019-01-04T05:38:35.451Z,23.30
2019-01-04T05:41:36.962Z,49.23
2019-01-04T05:44:38.456Z,42.40
2019-01-04T05:47:39.848Z,40.90
2019-01-04T05:50:41.361Z,35.40
2019-01-04T05:53:42.745Z,41.57
2019-01-04T05:56:44.273Z,50.23
2019-01-04T05:59:45.665Z,53.93
2019-01-04T06:02:47.384Z,56.13
2019-01-04T06:05:48.775Z,71.73
2019-01-04T06:08:50.287Z,62.50
2019-01-04T06:11:51.908Z,62.17
2019-01-04T06:14:53.601Z,48.40
2019-01-04T06:17:54.989Z,49.50
2019-01-04T06:20:56.522Z,42.23
2019-01-04T06:23:57.904Z,41.07
2019-01-04T06:26:59.425Z,49.03
2019-01-04T06:30:00.917Z,44.10
2019-01-04T06:33:02.430Z,46.97
2019-01-04T06:36:03.819Z,53.27
2019-01-04T06:39:06.363Z,51.47
2019-01-04T06:42:08.178Z,68.67
2019-01-04T06:45:09.773Z,54.50
2019-01-04T06:48:11.166Z,67.13
2019-01-04T06:51:12.644Z,67.60
2019-01-04T06:54:19.745Z,61.77
2019-01-04T06:57:21.322Z,69.33
2019-01-04T07:00:22.717Z,69.10
2019-01-04T07:03:24.434Z,62.20
2019-01-04T07:06:25.824Z,57.27
2019-01-04T07:09:27.346Z,62.97
2019-01-04T07:12:28.965Z,69.20
2019-01-04T07:15:30.557Z,59.00
2019-01-04T07:18:31.955Z,63.50
2019-01-04T07:21:33.460Z,67.23
2019-01-04T07:24:34.861Z,50.43
2019-01-04T07:27:36.365Z,56.80
2019-01-04T07:30:37.760Z,64.33
2019-01-04T07:33:39.316Z,48.37
2019-01-04T07:36:40.705Z,47.97
2019-01-04T07:39:42.284Z,72.07
2019-01-04T07:42:43.788Z,78.67
2019-01-04T07:45:45.287Z,67.17
2019-01-04T07:48:46.674Z,65.33
2019-01-04T07:51:48.201Z,69.10
2019-01-04T07:54:49.590Z,52.37
2019-01-04T07:57:51.109Z,79.97
2019-01-04T08:00:52.518Z,75.87
2019-01-04T08:03:54.209Z,64.60
2019-01-04T08:06:55.592Z,75.93
2019-01-04T08:09:57.121Z,67.87
2019-01-04T08:12:58.822Z,70.47
2019-01-04T08:16:00.337Z,77.10
2019-01-04T08:19:01.731Z,66.67
2019-01-04T08:22:03.251Z,75.10
2019-01-04T08:25:06.450Z,47.80
2019-01-04T08:28:08.034Z,48.50
2019-01-04T08:31:09.441Z,57.73
2019-01-04T08:34:11.004Z,78.33
2019-01-04T08:37:12.397Z,61.70
2019-01-04T08:40:14.013Z,73.63
2019-01-04T08:43:15.927Z,80.60
2019-01-04T08:46:17.399Z,66.80
2019-01-04T08:49:18.787Z,80.93
2019-01-04T08:52:20.340Z,84.63
2019-01-04T08:55:21.830Z,70.63
2019-01-04T08:58:23.344Z,54.87
2019-01-04T09:01:24.741Z,67.53
2019-01-04T09:04:27.320Z,83.17
2019-01-04T09:07:28.706Z,73.23
2019-01-04T09:10:30.175Z,55.60
2019-01-04T09:13:31.699Z,70.43
2019-01-04T09:16:33.196Z,71.07
2019-01-04T09:19:34.588Z,60.97
2019-01-04T09:22:36.202Z,55.20
2019-01-04T09:25:37.599Z,55.07
2019-01-04T09:28:39.105Z,60.90
2019-01-04T09:31:40.601Z,58.80
2019-01-04T09:34:42.114Z,47.10
2019-01-04T09:37:43.610Z,45.33
2019-01-04T09:40:45.125Z,51.30
2019-01-04T09:43:46.640Z,64.40
2019-01-04T09:46:48.129Z,69.87
2019-01-04T09:49:49.520Z,82.47
2019-01-04T09:52:51.049Z,66.70
2019-01-04T09:55:52.438Z,60.30
2019-01-04T09:58:53.949Z,59.13
2019-01-04T10:01:55.444Z,63.07
2019-01-04T10:04:57.284Z,61.90
2019-01-04T10:07:58.668Z,58.33
2019-01-04T10:11:00.185Z,62.40
2019-01-04T10:14:01.685Z,64.37
2019-01-04T10:17:03.260Z,55.33
2019-01-04T10:20:08.363Z,63.83
2019-01-04T10:23:09.930Z,61.70
2019-01-04T10:26:12.417Z,62.70
2019-01-04T10:29:13.908Z,59.97
2019-01-04T10:32:15.306Z,81.47
2019-01-04T10:35:16.817Z,57.43
2019-01-04T10:38:18.208Z,66.40
2019-01-04T10:41:19.725Z,81.63
2019-01-04T10:44:21.340Z,55.93
2019-01-04T10:47:22.833Z,79.17
2019-01-04T10:50:24.229Z,55.30
2019-01-04T10:53:25.740Z,45.57
2019-01-04T10:56:27.133Z,86.87
2019-01-04T10:59:28.645Z,72.50
2019-01-04T11:02:30.039Z,78.13
2019-01-04T11:05:32.118Z,72.83
2019-01-04T11:08:33.505Z,72.60
2019-01-04T11:11:35.071Z,79.80
2019-01-04T11:14:36.690Z,66.10
2019-01-04T11:17:38.224Z,61.50
2019-01-04T11:20:42.317Z,75.77
2019-01-04T11:23:57.919Z,79.47
2019-01-04T11:26:59.476Z,74.83
2019-01-04T11:30:15.849Z,97.53
2019-01-04T11:33:17.557Z,96.83
2019-01-04T11:36:46.503Z,136.70
2019-01-04T11:40:17.895Z,100.80
2019-01-04T11:43:55.249Z,95.13
2019-01-04T11:47:26.337Z,83.20
2019-01-04T11:50:57.642Z,94.73
2019-01-04T11:53:59.835Z,95.03
2019-01-04T11:57:01.378Z,80.83
2019-01-04T12:00:09.394Z,68.87
2019-01-04T12:03:11.041Z,74.30
2019-01-04T12:06:13.362Z,81.10
2019-01-04T12:09:14.853Z,61.07
2019-01-04T12:12:16.387Z,52.13
2019-01-04T12:15:17.882Z,63.07
2019-01-04T12:18:19.407Z,57.40
2019-01-04T12:21:20.893Z,66.33
2019-01-04T12:24:22.389Z,48.80
2019-01-04T12:27:23.917Z,64.07
2019-01-04T12:30:25.330Z,62.47
2019-01-04T12:33:26.909Z,72.47
2019-01-04T12:36:28.400Z,71.87
2019-01-04T12:39:30.021Z,66.90
2019-01-04T12:42:31.410Z,105.47
2019-01-04T12:45:32.877Z,67.63
2019-01-04T12:48:34.450Z,77.97
2019-01-04T12:51:35.937Z,47.03
2019-01-04T12:54:37.329Z,72.23
2019-01-04T12:57:39.036Z,62.23
2019-01-04T13:00:40.431Z,56.83
2019-01-04T13:03:41.956Z,63.73
2019-01-04T13:06:43.438Z,64.67
2019-01-04T13:09:44.992Z,39.10
2019-01-04T13:12:46.382Z,54.30
2019-01-04T13:15:48.008Z,34.07
2019-01-04T13:18:49.605Z,51.93
2019-01-04T13:21:51.291Z,49.67
2019-01-04T13:24:52.682Z,55.00
2019-01-04T13:27:54.159Z,53.30
2019-01-04T13:30:55.544Z,44.97
2019-01-04T13:33:57.107Z,48.33
2019-01-04T13:36:58.501Z,61.63
2019-01-04T13:40:00.019Z,43.43
2019-01-04T13:43:01.509Z,49.17
2019-01-04T13:46:03.025Z,51.57
2019-01-04T13:49:04.638Z,49.63
2019-01-04T13:52:06.129Z,45.80
2019-01-04T13:55:07.541Z,40.07
2019-01-04T13:58:09.274Z,43.80
2019-01-04T14:01:10.674Z,65.10
2019-01-04T14:04:12.145Z,56.17
2019-01-04T14:07:13.645Z,54.90
2019-01-04T14:10:15.156Z,44.63
2019-01-04T14:13:16.554Z,48.70
2019-01-04T14:16:19.190Z,43.87
2019-01-04T14:19:21.025Z,51.30
2019-01-04T14:22:22.548Z,46.87
2019-01-04T14:25:24.009Z,49.00
2019-01-04T14:28:25.617Z,47.03
2019-01-04T14:31:27.101Z,48.83
2019-01-04T14:34:30.576Z,49.40
2019-01-04T14:37:31.967Z,45.37
2019-01-04T14:40:33.582Z,48.13
2019-01-04T14:43:34.976Z,35.33
2019-01-04T14:46:36.850Z,45.17
2019-01-04T14:49:38.418Z,37.77
2019-01-04T14:52:40.829Z,44.27
2019-01-04T14:55:42.227Z,30.70
2019-01-04T14:58:43.701Z,35.67
2019-01-04T15:01:45.101Z,40.03
2019-01-04T15:04:46.641Z,41.47
2019-01-04T15:07:48.144Z,41.87
2019-01-04T15:10:49.628Z,41.53
2019-01-04T15:13:51.017Z,32.87
2019-01-04T15:16:52.561Z,43.57
2019-01-04T15:19:54.070Z,35.37
2019-01-04T15:22:55.873Z,55.80
2019-01-04T15:25:57.269Z,54.00
2019-01-04T15:28:58.793Z,68.07
2019-01-04T15:32:00.182Z,63.53
2019-01-04T15:35:01.790Z,80.53
2019-01-04T15:38:03.381Z,63.83
2019-01-04T15:41:04.938Z,72.00
2019-01-04T15:44:06.430Z,67.53
2019-01-04T15:47:08.019Z,90.40
2019-01-04T15:50:09.639Z,70.87
2019-01-04T15:53:11.129Z,93.10
2019-01-04T15:56:12.606Z,76.07
2019-01-04T15:59:14.089Z,72.17
2019-01-04T16:02:15.486Z,75.00
2019-01-04T16:05:17.144Z,62.57
2019-01-04T16:08:18.648Z,78.83
2019-01-04T16:11:20.156Z,72.87
2019-01-04T16:14:21.550Z,52.97
2019-01-04T16:17:23.021Z,57.03
2019-01-04T16:20:24.798Z,59.17
2019-01-04T16:23:26.381Z,61.60
2019-01-04T16:26:27.773Z,63.47
2019-01-04T16:29:29.247Z,79.53
2019-01-04T16:32:30.737Z,91.57
2019-01-04T16:35:32.398Z,87.97
2019-01-04T16:38:33.789Z,65.47
2019-01-04T16:41:35.373Z,87.00
2019-01-04T16:44:37.051Z,84.97
2019-01-04T16:47:39.136Z,71.60
2019-01-04T16:50:40.747Z,79.53
2019-01-04T16:53:42.350Z,75.63
2019-01-04T16:56:45.157Z,89.20
2019-01-04T16:59:46.793Z,73.67
2019-01-04T17:02:48.183Z,73.27
2019-01-04T17:05:49.807Z,82.20
2019-01-04T17:08:54.829Z,82.53
2019-01-04T17:11:56.559Z,69.57
2019-01-04T17:14:58.055Z,75.93
2019-01-04T17:17:59.525Z,70.77
2019-01-04T17:21:01.233Z,76.20
2019-01-04T17:24:03.845Z,94.47
2019-01-04T17:27:05.233Z,77.17
2019-01-04T17:30:08.494Z,86.53
2019-01-04T17:33:09.887Z,79.80
2019-01-04T17:36:11.504Z,84.77
2019-01-04T17:39:12.991Z,85.23
2019-01-04T17:42:14.513Z,90.33
2019-01-04T17:45:15.904Z,81.67
2019-01-04T17:48:17.522Z,90.40
2019-01-04T17:51:19.144Z,112.63
2019-01-04T17:54:20.737Z,125.73
2019-01-04T17:57:22.125Z,150.17
2019-01-04T18:00:23.740Z,147.73
2019-01-04T18:03:25.244Z,148.53
2019-01-04T18:06:26.821Z,127.07
2019-01-04T18:09:29.196Z,135.70
2019-01-04T18:12:30.787Z,142.37
2019-01-04T18:15:32.274Z,107.03
2019-01-04T18:18:33.840Z,119.57
2019-01-04T18:21:35.418Z,109.90
2019-01-04T18:24:37.012Z,110.43
2019-01-04T18:27:38.405Z,112.50
2019-01-04T18:30:39.916Z,119.50
2019-01-04T18:33:42.578Z,99.23
2019-01-04T18:36:44.138Z,82.77
2019-01-04T18:39:45.527Z,65.30
2019-01-04T18:42:47.063Z,91.53
2019-01-04T18:45:48.450Z,78.70
2019-01-04T18:48:49.979Z,75.07
2019-01-04T18:51:51.498Z,62.77
2019-01-04T18:54:53.077Z,68.30
2019-01-04T18:57:54.471Z,55.13
2019-01-04T19:00:55.988Z,63.17
2019-01-04T19:03:57.402Z,70.73
2019-01-04T19:06:58.900Z,64.17
2019-01-04T19:10:01.419Z,64.33
2019-01-04T19:13:03.346Z,65.13
2019-01-04T19:16:04.935Z,58.57
2019-01-04T19:19:06.549Z,57.80
2019-01-04T19:22:08.457Z,62.67
2019-01-04T19:25:10.036Z,65.87
2019-01-04T19:28:11.422Z,78.83
2019-01-04T19:31:13.091Z,84.40
2019-01-04T19:34:14.579Z,63.90
2019-01-04T19:37:16.199Z,60.70
2019-01-04T19:40:17.591Z,61.93
2019-01-04T19:43:19.211Z,65.00
2019-01-04T19:46:20.594Z,52.77
2019-01-04T19:49:22.109Z,66.93
2019-01-04T19:52:23.712Z,53.50
2019-01-04T19:55:25.587Z,57.70
2019-01-04T19:58:27.069Z,65.17
2019-01-04T20:01:28.647Z,59.87
2019-01-04T20:04:30.148Z,56.47
2019-01-04T20:08:00.476Z,61.53
2019-01-04T20:11:25.898Z,59.23
2019-01-04T20:15:02.513Z,57.93
2019-01-04T20:18:29.231Z,61.83
2019-01-04T20:21:41.930Z,64.70
2019-01-04T20:24:52.264Z,60.87
2019-01-04T20:28:12.543Z,60.47
2019-01-04T20:31:21.566Z,60.33
2019-01-04T20:34:36.956Z,67.17
2019-01-04T20:37:50.524Z,54.03
2019-01-04T20:41:10.685Z,58.97
2019-01-04T20:44:13.985Z,60.70
2019-01-04T20:47:33.857Z,63.10
2019-01-04T20:50:43.305Z,85.83
2019-01-04T20:53:48.025Z,66.83
2019-01-04T20:56:57.522Z,49.23
2019-01-04T21:00:17.294Z,75.87
2019-01-04T21:03:26.490Z,62.50
2019-01-04T21:06:46.397Z,60.17
2019-01-04T21:10:01.470Z,68.97
2019-01-04T21:13:12.034Z,70.20
2019-01-04T21:16:18.347Z,62.90
2019-01-04T21:19:23.307Z,76.30
2019-01-04T21:22:35.658Z,66.30
2019-01-04T21:25:39.049Z,42.17
2019-01-04T21:28:57.417Z,54.60
2019-01-04T21:32:16.041Z,49.43
2019-01-04T21:35:35.855Z,62.53
2019-01-04T21:38:57.865Z,63.10
2019-01-04T21:42:07.271Z,56.93
2019-01-04T21:45:08.847Z,62.10
2019-01-04T21:48:28.421Z,45.53
2019-01-04T21:51:32.641Z,51.57
2019-01-04T21:54:39.759Z,42.57
2019-01-04T21:57:46.814Z,42.47
2019-01-04T22:00:50.224Z,49.93
2019-01-04T22:03:54.639Z,67.13
2019-01-04T22:07:14.698Z,55.63
2019-01-04T22:10:20.989Z,41.13
2019-01-04T22:13:30.953Z,47.87
2019-01-04T22:16:34.605Z,39.97
2019-01-04T22:19:38.565Z,43.53
2019-01-04T22:22:59.070Z,43.23
2019-01-04T22:26:18.891Z,42.27
2019-01-04T22:29:27.907Z,48.13
2019-01-04T22:32:41.526Z,40.13
2019-01-04T22:35:44.915Z,35.17
2019-01-04T22:39:04.821Z,37.70
2019-01-04T22:42:11.915Z,38.03
2019-01-04T22:45:24.040Z,38.73
2019-01-04T22:48:37.717Z,34.83
2019-01-04T22:51:46.897Z,44.67
2019-01-04T22:54:55.950Z,44.17
2019-01-04T22:58:15.689Z,44.13
2019-01-04T23:01:27.732Z,35.03
2019-01-04T23:04:36.935Z,38.30
2019-01-04T23:07:56.796Z,44.57
2019-01-04T23:11:02.718Z,45.07
2019-01-04T23:14:22.954Z,32.37
2019-01-04T23:17:28.912Z,44.97
2019-01-04T23:20:44.185Z,44.73
2019-01-04T23:23:59.698Z,40.03
2019-01-04T23:27:19.863Z,39.47
2019-01-04T23:30:35.025Z,45.37
2019-01-04T23:33:38.440Z,42.07
2019-01-04T23:36:53.581Z,34.30
2019-01-04T23:40:13.396Z,41.63
2019-01-04T23:43:33.149Z,31.77
2019-01-04T23:46:42.627Z,39.77
2019-01-04T23:49:54.865Z,46.30
2019-01-04T23:53:07.541Z,41.80
2019-01-04T23:56:27.659Z,49.80
2019-01-04T23:59:31.029Z,49.20
